sensor_id;sensor_type;location;lat;lon;timestamp;P1;durP1;ratioP1;P2;durP2;ratioP2
1699;SDS011;847;48.058;7.810;2023-11-18T00:01:43;24.90;;;19.33;;
1699;SDS011;847;48.058;7.810;2023-11-18T00:04:11;6.67;;;5.43;;
1699;SDS011;847;48.058;7.810;2023-11-18T00:06:40;6.20;;;4.73;;
1699;SDS011;847;48.058;7.810;2023-11-18T00:09:09;6.90;;;4.47;;
1699;SDS011;847;48.058;7.810;2023-11-18T00:11:38;10.47;;;9.10;;
1699;SDS011;847;48.058;7.810;2023-11-18T00:14:04;14.50;;;13.10;;
1699;SDS011;847;48.058;7.810;2023-11-18T00:16:31;7.47;;;6.77;;
1699;SDS011;847;48.058;7.810;2023-11-18T00:18:59;11.20;;;8.93;;
1699;SDS011;847;48.058;7.810;2023-11-18T00:21:27;6.80;;;6.20;;
1699;SDS011;847;48.058;7.810;2023-11-18T00:23:54;10.43;;;6.40;;
1699;SDS011;847;48.058;7.810;2023-11-18T00:26:22;8.07;;;6.20;;
1699;SDS011;847;48.058;7.810;2023-11-18T00:28:50;10.50;;;7.37;;
1699;SDS011;847;48.058;7.810;2023-11-18T00:31:17;8.40;;;7.50;;
1699;SDS011;847;48.058;7.810;2023-11-18T00:33:44;7.30;;;6.60;;
1699;SDS011;847;48.058;7.810;2023-11-18T00:36:11;7.20;;;6.50;;
1699;SDS011;847;48.058;7.810;2023-11-18T00:38:39;5.03;;;4.57;;
1699;SDS011;847;48.058;7.810;2023-11-18T00:41:06;5.07;;;4.60;;
1699;SDS011;847;48.058;7.810;2023-11-18T00:43:32;5.30;;;4.80;;
1699;SDS011;847;48.058;7.810;2023-11-18T00:45:59;7.27;;;6.50;;
1699;SDS011;847;48.058;7.810;2023-11-18T00:48:28;6.20;;;5.70;;
1699;SDS011;847;48.058;7.810;2023-11-18T00:50:55;6.63;;;6.03;;
1699;SDS011;847;48.058;7.810;2023-11-18T00:53:22;7.20;;;5.50;;
1699;SDS011;847;48.058;7.810;2023-11-18T00:55:50;7.20;;;6.60;;
1699;SDS011;847;48.058;7.810;2023-11-18T00:58:17;6.93;;;6.03;;
1699;SDS011;847;48.058;7.810;2023-11-18T01:00:45;5.03;;;4.63;;
1699;SDS011;847;48.058;7.810;2023-11-18T01:03:12;4.50;;;3.87;;
1699;SDS011;847;48.058;7.810;2023-11-18T01:05:38;4.90;;;4.40;;
1699;SDS011;847;48.058;7.810;2023-11-18T01:08:05;5.20;;;4.70;;
1699;SDS011;847;48.058;7.810;2023-11-18T01:10:33;6.43;;;5.83;;
1699;SDS011;847;48.058;7.810;2023-11-18T01:13:01;4.50;;;3.80;;
1699;SDS011;847;48.058;7.810;2023-11-18T01:15:28;4.20;;;3.87;;
1699;SDS011;847;48.058;7.810;2023-11-18T01:17:57;4.97;;;4.43;;
1699;SDS011;847;48.058;7.810;2023-11-18T01:20:24;4.33;;;4.03;;
1699;SDS011;847;48.058;7.810;2023-11-18T01:22:51;4.73;;;4.10;;
1699;SDS011;847;48.058;7.810;2023-11-18T01:25:18;6.20;;;5.60;;
1699;SDS011;847;48.058;7.810;2023-11-18T01:27:44;9.77;;;8.80;;
1699;SDS011;847;48.058;7.810;2023-11-18T01:30:14;9.50;;;8.43;;
1699;SDS011;847;48.058;7.810;2023-11-18T01:32:41;11.73;;;9.60;;
1699;SDS011;847;48.058;7.810;2023-11-18T01:35:08;8.70;;;7.80;;
1699;SDS011;847;48.058;7.810;2023-11-18T01:37:37;4.90;;;4.50;;
1699;SDS011;847;48.058;7.810;2023-11-18T01:40:04;3.90;;;3.60;;
1699;SDS011;847;48.058;7.810;2023-11-18T01:42:33;4.90;;;3.67;;
1699;SDS011;847;48.058;7.810;2023-11-18T01:44:59;5.00;;;3.47;;
1699;SDS011;847;48.058;7.810;2023-11-18T01:47:30;4.90;;;4.30;;
1699;SDS011;847;48.058;7.810;2023-11-18T01:49:58;5.07;;;4.57;;
1699;SDS011;847;48.058;7.810;2023-11-18T01:52:25;5.90;;;3.97;;
1699;SDS011;847;48.058;7.810;2023-11-18T01:54:55;4.23;;;3.93;;
1699;SDS011;847;48.058;7.810;2023-11-18T01:57:22;3.63;;;3.33;;
1699;SDS011;847;48.058;7.810;2023-11-18T01:59:50;4.50;;;3.83;;
1699;SDS011;847;48.058;7.810;2023-11-18T02:02:17;4.80;;;4.40;;
1699;SDS011;847;48.058;7.810;2023-11-18T02:04:47;4.53;;;4.13;;
1699;SDS011;847;48.058;7.810;2023-11-18T02:07:14;5.20;;;4.57;;
1699;SDS011;847;48.058;7.810;2023-11-18T02:09:41;4.10;;;3.70;;
1699;SDS011;847;48.058;7.810;2023-11-18T02:12:11;4.50;;;3.90;;
1699;SDS011;847;48.058;7.810;2023-11-18T02:14:47;5.10;;;4.60;;
1699;SDS011;847;48.058;7.810;2023-11-18T02:17:17;4.30;;;3.90;;
1699;SDS011;847;48.058;7.810;2023-11-18T02:19:50;5.70;;;4.30;;
1699;SDS011;847;48.058;7.810;2023-11-18T02:22:18;5.10;;;4.60;;
1699;SDS011;847;48.058;7.810;2023-11-18T02:24:46;4.53;;;4.13;;
1699;SDS011;847;48.058;7.810;2023-11-18T02:27:15;6.93;;;6.23;;
1699;SDS011;847;48.058;7.810;2023-11-18T02:29:45;8.50;;;7.53;;
1699;SDS011;847;48.058;7.810;2023-11-18T02:32:15;7.90;;;7.07;;
1699;SDS011;847;48.058;7.810;2023-11-18T02:34:49;6.77;;;6.17;;
1699;SDS011;847;48.058;7.810;2023-11-18T02:37:22;5.93;;;5.43;;
1699;SDS011;847;48.058;7.810;2023-11-18T02:39:52;4.90;;;4.43;;
1699;SDS011;847;48.058;7.810;2023-11-18T02:42:24;5.13;;;4.63;;
1699;SDS011;847;48.058;7.810;2023-11-18T02:44:52;6.33;;;5.73;;
1699;SDS011;847;48.058;7.810;2023-11-18T02:47:24;6.97;;;4.60;;
1699;SDS011;847;48.058;7.810;2023-11-18T02:49:53;7.00;;;6.30;;
1699;SDS011;847;48.058;7.810;2023-11-18T02:52:21;4.70;;;4.23;;
1699;SDS011;847;48.058;7.810;2023-11-18T02:54:48;5.20;;;4.70;;
1699;SDS011;847;48.058;7.810;2023-11-18T02:57:15;5.70;;;4.60;;
1699;SDS011;847;48.058;7.810;2023-11-18T02:59:43;5.23;;;4.03;;
1699;SDS011;847;48.058;7.810;2023-11-18T03:02:11;4.50;;;3.70;;
1699;SDS011;847;48.058;7.810;2023-11-18T03:04:40;4.40;;;3.93;;
1699;SDS011;847;48.058;7.810;2023-11-18T03:07:09;4.33;;;3.07;;
1699;SDS011;847;48.058;7.810;2023-11-18T03:09:36;4.10;;;3.70;;
1699;SDS011;847;48.058;7.810;2023-11-18T03:12:04;3.97;;;3.67;;
1699;SDS011;847;48.058;7.810;2023-11-18T03:14:32;6.33;;;5.43;;
1699;SDS011;847;48.058;7.810;2023-11-18T03:17:01;8.00;;;6.63;;
1699;SDS011;847;48.058;7.810;2023-11-18T03:19:31;5.70;;;4.47;;
1699;SDS011;847;48.058;7.810;2023-11-18T03:21:58;11.50;;;7.33;;
1699;SDS011;847;48.058;7.810;2023-11-18T03:24:25;9.00;;;5.50;;
1699;SDS011;847;48.058;7.810;2023-11-18T03:26:53;5.67;;;5.07;;
1699;SDS011;847;48.058;7.810;2023-11-18T03:29:20;5.20;;;4.70;;
1699;SDS011;847;48.058;7.810;2023-11-18T03:31:47;4.67;;;4.17;;
1699;SDS011;847;48.058;7.810;2023-11-18T03:34:16;5.30;;;4.80;;
1699;SDS011;847;48.058;7.810;2023-11-18T03:36:44;4.37;;;4.00;;
1699;SDS011;847;48.058;7.810;2023-11-18T03:39:11;5.40;;;4.90;;
1699;SDS011;847;48.058;7.810;2023-11-18T03:41:38;3.43;;;3.10;;
1699;SDS011;847;48.058;7.810;2023-11-18T03:44:05;3.60;;;3.30;;
1699;SDS011;847;48.058;7.810;2023-11-18T03:46:33;5.43;;;3.67;;
1699;SDS011;847;48.058;7.810;2023-11-18T03:49:00;4.10;;;3.27;;
1699;SDS011;847;48.058;7.810;2023-11-18T03:51:28;3.40;;;3.10;;
1699;SDS011;847;48.058;7.810;2023-11-18T03:53:55;2.90;;;2.70;;
1699;SDS011;847;48.058;7.810;2023-11-18T03:56:22;3.23;;;2.90;;
1699;SDS011;847;48.058;7.810;2023-11-18T03:58:48;3.40;;;2.97;;
1699;SDS011;847;48.058;7.810;2023-11-18T04:01:19;4.50;;;3.40;;
1699;SDS011;847;48.058;7.810;2023-11-18T04:03:46;3.73;;;3.27;;
1699;SDS011;847;48.058;7.810;2023-11-18T04:06:13;3.70;;;3.10;;
1699;SDS011;847;48.058;7.810;2023-11-18T04:08:43;3.73;;;3.43;;
1699;SDS011;847;48.058;7.810;2023-11-18T04:11:10;4.13;;;3.33;;
1699;SDS011;847;48.058;7.810;2023-11-18T04:13:38;3.73;;;3.33;;
1699;SDS011;847;48.058;7.810;2023-11-18T04:16:05;4.17;;;3.37;;
1699;SDS011;847;48.058;7.810;2023-11-18T04:18:32;5.53;;;3.10;;
1699;SDS011;847;48.058;7.810;2023-11-18T04:21:00;3.97;;;3.37;;
1699;SDS011;847;48.058;7.810;2023-11-18T04:23:26;3.50;;;3.20;;
1699;SDS011;847;48.058;7.810;2023-11-18T04:25:54;7.40;;;3.70;;
1699;SDS011;847;48.058;7.810;2023-11-18T04:28:21;3.83;;;3.43;;
1699;SDS011;847;48.058;7.810;2023-11-18T04:30:48;3.60;;;3.30;;
1699;SDS011;847;48.058;7.810;2023-11-18T04:33:15;3.63;;;3.33;;
1699;SDS011;847;48.058;7.810;2023-11-18T04:35:41;3.67;;;3.37;;
1699;SDS011;847;48.058;7.810;2023-11-18T04:38:08;3.60;;;3.30;;
1699;SDS011;847;48.058;7.810;2023-11-18T04:40:35;3.53;;;3.23;;
1699;SDS011;847;48.058;7.810;2023-11-18T04:43:05;3.10;;;2.90;;
1699;SDS011;847;48.058;7.810;2023-11-18T04:45:31;3.70;;;3.40;;
1699;SDS011;847;48.058;7.810;2023-11-18T04:47:59;3.57;;;3.27;;
1699;SDS011;847;48.058;7.810;2023-11-18T04:50:25;3.20;;;3.00;;
1699;SDS011;847;48.058;7.810;2023-11-18T04:52:53;4.70;;;4.17;;
1699;SDS011;847;48.058;7.810;2023-11-18T04:55:20;4.43;;;4.13;;
1699;SDS011;847;48.058;7.810;2023-11-18T04:57:47;5.27;;;4.87;;
1699;SDS011;847;48.058;7.810;2023-11-18T05:00:14;4.53;;;4.23;;
1699;SDS011;847;48.058;7.810;2023-11-18T05:02:42;5.97;;;5.10;;
1699;SDS011;847;48.058;7.810;2023-11-18T05:05:12;5.10;;;4.60;;
1699;SDS011;847;48.058;7.810;2023-11-18T05:07:40;4.50;;;4.10;;
1699;SDS011;847;48.058;7.810;2023-11-18T05:10:08;4.70;;;4.40;;
1699;SDS011;847;48.058;7.810;2023-11-18T05:12:36;4.80;;;4.40;;
1699;SDS011;847;48.058;7.810;2023-11-18T05:15:05;5.30;;;4.90;;
1699;SDS011;847;48.058;7.810;2023-11-18T05:17:36;4.80;;;4.30;;
1699;SDS011;847;48.058;7.810;2023-11-18T05:20:03;4.10;;;3.70;;
1699;SDS011;847;48.058;7.810;2023-11-18T05:22:33;4.60;;;4.20;;
1699;SDS011;847;48.058;7.810;2023-11-18T05:25:01;6.17;;;3.80;;
1699;SDS011;847;48.058;7.810;2023-11-18T05:27:29;4.80;;;4.30;;
1699;SDS011;847;48.058;7.810;2023-11-18T05:29:56;4.23;;;3.93;;
1699;SDS011;847;48.058;7.810;2023-11-18T05:32:26;4.80;;;4.40;;
1699;SDS011;847;48.058;7.810;2023-11-18T05:34:54;4.63;;;4.27;;
1699;SDS011;847;48.058;7.810;2023-11-18T05:37:23;4.60;;;4.23;;
1699;SDS011;847;48.058;7.810;2023-11-18T05:39:53;4.30;;;4.00;;
1699;SDS011;847;48.058;7.810;2023-11-18T05:42:24;3.93;;;3.60;;
1699;SDS011;847;48.058;7.810;2023-11-18T05:44:51;4.10;;;3.80;;
1699;SDS011;847;48.058;7.810;2023-11-18T05:47:24;4.60;;;3.40;;
1699;SDS011;847;48.058;7.810;2023-11-18T05:49:52;3.10;;;2.90;;
1699;SDS011;847;48.058;7.810;2023-11-18T05:52:20;3.00;;;2.70;;
1699;SDS011;847;48.058;7.810;2023-11-18T05:54:47;3.17;;;2.80;;
1699;SDS011;847;48.058;7.810;2023-11-18T05:57:14;3.60;;;3.13;;
1699;SDS011;847;48.058;7.810;2023-11-18T05:59:41;3.70;;;3.30;;
1699;SDS011;847;48.058;7.810;2023-11-18T06:02:08;3.60;;;3.30;;
1699;SDS011;847;48.058;7.810;2023-11-18T06:04:38;3.50;;;3.23;;
1699;SDS011;847;48.058;7.810;2023-11-18T06:07:04;4.63;;;3.50;;
1699;SDS011;847;48.058;7.810;2023-11-18T06:09:32;5.67;;;3.77;;
1699;SDS011;847;48.058;7.810;2023-11-18T06:11:59;4.40;;;3.83;;
1699;SDS011;847;48.058;7.810;2023-11-18T06:14:27;6.20;;;5.60;;
1699;SDS011;847;48.058;7.810;2023-11-18T06:16:54;3.90;;;3.60;;
1699;SDS011;847;48.058;7.810;2023-11-18T06:19:20;4.50;;;4.10;;
1699;SDS011;847;48.058;7.810;2023-11-18T06:21:47;4.43;;;4.03;;
1699;SDS011;847;48.058;7.810;2023-11-18T06:24:14;7.20;;;6.67;;
1699;SDS011;847;48.058;7.810;2023-11-18T06:26:45;4.87;;;3.90;;
1699;SDS011;847;48.058;7.810;2023-11-18T06:29:11;4.00;;;3.70;;
1699;SDS011;847;48.058;7.810;2023-11-18T06:31:39;7.03;;;5.10;;
1699;SDS011;847;48.058;7.810;2023-11-18T06:34:06;5.07;;;4.10;;
1699;SDS011;847;48.058;7.810;2023-11-18T06:36:32;3.90;;;3.60;;
1699;SDS011;847;48.058;7.810;2023-11-18T06:38:59;5.47;;;4.10;;
1699;SDS011;847;48.058;7.810;2023-11-18T06:41:26;4.33;;;4.03;;
1699;SDS011;847;48.058;7.810;2023-11-18T06:44:00;4.33;;;3.80;;
1699;SDS011;847;48.058;7.810;2023-11-18T06:46:34;5.10;;;4.57;;
1699;SDS011;847;48.058;7.810;2023-11-18T06:49:02;4.70;;;4.30;;
1699;SDS011;847;48.058;7.810;2023-11-18T06:51:32;7.13;;;4.20;;
1699;SDS011;847;48.058;7.810;2023-11-18T06:54:00;4.37;;;3.60;;
1699;SDS011;847;48.058;7.810;2023-11-18T06:56:33;4.90;;;4.50;;
1699;SDS011;847;48.058;7.810;2023-11-18T06:59:03;4.40;;;3.80;;
1699;SDS011;847;48.058;7.810;2023-11-18T07:01:31;4.40;;;4.00;;
1699;SDS011;847;48.058;7.810;2023-11-18T07:03:58;7.70;;;3.73;;
1699;SDS011;847;48.058;7.810;2023-11-18T07:06:25;3.30;;;3.10;;
1699;SDS011;847;48.058;7.810;2023-11-18T07:08:53;3.13;;;2.80;;
1699;SDS011;847;48.058;7.810;2023-11-18T07:11:21;3.43;;;3.10;;
1699;SDS011;847;48.058;7.810;2023-11-18T07:13:48;3.70;;;3.27;;
1699;SDS011;847;48.058;7.810;2023-11-18T07:16:16;4.50;;;4.17;;
1699;SDS011;847;48.058;7.810;2023-11-18T07:18:43;3.90;;;3.30;;
1699;SDS011;847;48.058;7.810;2023-11-18T07:21:10;4.10;;;3.80;;
1699;SDS011;847;48.058;7.810;2023-11-18T07:23:39;5.20;;;4.47;;
1699;SDS011;847;48.058;7.810;2023-11-18T07:26:07;3.90;;;3.60;;
1699;SDS011;847;48.058;7.810;2023-11-18T07:28:36;8.80;;;4.20;;
1699;SDS011;847;48.058;7.810;2023-11-18T07:31:03;4.63;;;4.30;;
1699;SDS011;847;48.058;7.810;2023-11-18T07:33:32;8.13;;;7.40;;
1699;SDS011;847;48.058;7.810;2023-11-18T07:35:59;8.07;;;7.37;;
1699;SDS011;847;48.058;7.810;2023-11-18T07:38:28;9.37;;;8.43;;
1699;SDS011;847;48.058;7.810;2023-11-18T07:40:57;11.80;;;10.07;;
1699;SDS011;847;48.058;7.810;2023-11-18T07:43:24;12.33;;;10.97;;
1699;SDS011;847;48.058;7.810;2023-11-18T07:45:53;13.00;;;11.60;;
1699;SDS011;847;48.058;7.810;2023-11-18T07:48:23;13.83;;;10.33;;
1699;SDS011;847;48.058;7.810;2023-11-18T07:50:51;12.40;;;11.13;;
1699;SDS011;847;48.058;7.810;2023-11-18T07:53:18;10.83;;;8.13;;
1699;SDS011;847;48.058;7.810;2023-11-18T07:55:44;10.07;;;8.97;;
1699;SDS011;847;48.058;7.810;2023-11-18T07:58:12;7.87;;;6.70;;
1699;SDS011;847;48.058;7.810;2023-11-18T08:00:39;8.83;;;8.10;;
1699;SDS011;847;48.058;7.810;2023-11-18T08:03:07;10.33;;;9.17;;
1699;SDS011;847;48.058;7.810;2023-11-18T08:05:36;10.03;;;9.00;;
1699;SDS011;847;48.058;7.810;2023-11-18T08:08:05;12.47;;;9.77;;
1699;SDS011;847;48.058;7.810;2023-11-18T08:10:33;12.77;;;9.07;;
1699;SDS011;847;48.058;7.810;2023-11-18T08:13:02;11.90;;;8.53;;
1699;SDS011;847;48.058;7.810;2023-11-18T08:15:29;9.97;;;9.00;;
1699;SDS011;847;48.058;7.810;2023-11-18T08:17:56;12.60;;;8.70;;
1699;SDS011;847;48.058;7.810;2023-11-18T08:20:23;11.00;;;9.77;;
1699;SDS011;847;48.058;7.810;2023-11-18T08:22:50;10.80;;;9.30;;
1699;SDS011;847;48.058;7.810;2023-11-18T08:25:19;9.60;;;8.60;;
1699;SDS011;847;48.058;7.810;2023-11-18T08:27:46;13.00;;;10.33;;
1699;SDS011;847;48.058;7.810;2023-11-18T08:30:14;14.87;;;10.53;;
1699;SDS011;847;48.058;7.810;2023-11-18T08:32:43;15.93;;;11.20;;
1699;SDS011;847;48.058;7.810;2023-11-18T08:35:11;10.10;;;8.83;;
1699;SDS011;847;48.058;7.810;2023-11-18T08:37:39;12.23;;;9.47;;
1699;SDS011;847;48.058;7.810;2023-11-18T08:40:07;12.47;;;10.70;;
1699;SDS011;847;48.058;7.810;2023-11-18T08:42:41;14.97;;;10.93;;
1699;SDS011;847;48.058;7.810;2023-11-18T08:45:13;24.23;;;13.63;;
1699;SDS011;847;48.058;7.810;2023-11-18T08:47:42;13.27;;;9.03;;
1699;SDS011;847;48.058;7.810;2023-11-18T08:50:09;18.93;;;14.37;;
1699;SDS011;847;48.058;7.810;2023-11-18T08:52:37;16.87;;;13.47;;
1699;SDS011;847;48.058;7.810;2023-11-18T08:55:08;8.50;;;7.70;;
1699;SDS011;847;48.058;7.810;2023-11-18T08:57:44;13.17;;;11.70;;
1699;SDS011;847;48.058;7.810;2023-11-18T09:00:17;11.27;;;9.70;;
1699;SDS011;847;48.058;7.810;2023-11-18T09:02:58;12.40;;;10.20;;
1699;SDS011;847;48.058;7.810;2023-11-18T09:05:26;6.57;;;5.97;;
1699;SDS011;847;48.058;7.810;2023-11-18T09:07:56;5.40;;;4.90;;
1699;SDS011;847;48.058;7.810;2023-11-18T09:10:25;5.50;;;4.40;;
1699;SDS011;847;48.058;7.810;2023-11-18T09:12:54;7.10;;;4.50;;
1699;SDS011;847;48.058;7.810;2023-11-18T09:15:21;5.50;;;5.00;;
1699;SDS011;847;48.058;7.810;2023-11-18T09:17:48;25.67;;;20.77;;
1699;SDS011;847;48.058;7.810;2023-11-18T09:20:15;17.33;;;13.07;;
1699;SDS011;847;48.058;7.810;2023-11-18T09:22:45;5.23;;;4.60;;
1699;SDS011;847;48.058;7.810;2023-11-18T09:25:13;9.33;;;7.27;;
1699;SDS011;847;48.058;7.810;2023-11-18T09:27:41;24.50;;;18.33;;
1699;SDS011;847;48.058;7.810;2023-11-18T09:30:09;8.10;;;5.73;;
1699;SDS011;847;48.058;7.810;2023-11-18T09:32:38;5.33;;;4.83;;
1699;SDS011;847;48.058;7.810;2023-11-18T09:35:07;16.20;;;12.50;;
1699;SDS011;847;48.058;7.810;2023-11-18T09:37:34;32.03;;;22.90;;
1699;SDS011;847;48.058;7.810;2023-11-18T09:40:01;35.83;;;25.47;;
1699;SDS011;847;48.058;7.810;2023-11-18T09:42:36;10.70;;;6.60;;
1699;SDS011;847;48.058;7.810;2023-11-18T09:45:04;5.03;;;4.13;;
1699;SDS011;847;48.058;7.810;2023-11-18T09:47:42;10.77;;;8.97;;
1699;SDS011;847;48.058;7.810;2023-11-18T09:50:12;10.90;;;5.97;;
1699;SDS011;847;48.058;7.810;2023-11-18T09:52:47;8.50;;;6.67;;
1699;SDS011;847;48.058;7.810;2023-11-18T09:55:20;11.33;;;9.13;;
1699;SDS011;847;48.058;7.810;2023-11-18T09:57:55;6.20;;;4.70;;
1699;SDS011;847;48.058;7.810;2023-11-18T10:00:33;4.67;;;4.23;;
1699;SDS011;847;48.058;7.810;2023-11-18T10:03:06;7.53;;;5.40;;
1699;SDS011;847;48.058;7.810;2023-11-18T10:05:33;7.17;;;6.47;;
1699;SDS011;847;48.058;7.810;2023-11-18T10:08:02;7.43;;;4.20;;
1699;SDS011;847;48.058;7.810;2023-11-18T10:10:31;13.07;;;5.50;;
1699;SDS011;847;48.058;7.810;2023-11-18T10:13:01;12.10;;;6.43;;
1699;SDS011;847;48.058;7.810;2023-11-18T10:15:33;6.30;;;5.70;;
1699;SDS011;847;48.058;7.810;2023-11-18T10:18:02;7.00;;;5.07;;
1699;SDS011;847;48.058;7.810;2023-11-18T10:20:46;5.27;;;4.87;;
1699;SDS011;847;48.058;7.810;2023-11-18T10:23:16;7.10;;;4.83;;
1699;SDS011;847;48.058;7.810;2023-11-18T10:25:46;5.80;;;5.20;;
1699;SDS011;847;48.058;7.810;2023-11-18T10:28:24;5.60;;;5.10;;
1699;SDS011;847;48.058;7.810;2023-11-18T10:30:52;6.30;;;5.70;;
1699;SDS011;847;48.058;7.810;2023-11-18T10:33:24;6.37;;;4.87;;
1699;SDS011;847;48.058;7.810;2023-11-18T10:35:57;6.83;;;6.03;;
1699;SDS011;847;48.058;7.810;2023-11-18T10:38:28;8.33;;;5.70;;
1699;SDS011;847;48.058;7.810;2023-11-18T10:40:56;5.37;;;4.87;;
1699;SDS011;847;48.058;7.810;2023-11-18T10:43:26;9.73;;;7.10;;
1699;SDS011;847;48.058;7.810;2023-11-18T10:46:03;7.90;;;6.20;;
1699;SDS011;847;48.058;7.810;2023-11-18T10:48:36;7.10;;;6.50;;
1699;SDS011;847;48.058;7.810;2023-11-18T10:51:07;8.50;;;7.70;;
1699;SDS011;847;48.058;7.810;2023-11-18T10:53:37;10.53;;;9.33;;
1699;SDS011;847;48.058;7.810;2023-11-18T10:56:04;9.30;;;8.40;;
1699;SDS011;847;48.058;7.810;2023-11-18T10:58:35;10.23;;;7.73;;
1699;SDS011;847;48.058;7.810;2023-11-18T11:01:05;8.03;;;7.23;;
1699;SDS011;847;48.058;7.810;2023-11-18T11:03:37;7.30;;;6.53;;
1699;SDS011;847;48.058;7.810;2023-11-18T11:06:22;15.13;;;13.20;;
1699;SDS011;847;48.058;7.810;2023-11-18T11:08:50;19.90;;;15.00;;
1699;SDS011;847;48.058;7.810;2023-11-18T11:11:17;12.47;;;10.50;;
1699;SDS011;847;48.058;7.810;2023-11-18T11:13:49;12.90;;;10.57;;
1699;SDS011;847;48.058;7.810;2023-11-18T11:16:20;12.60;;;10.50;;
1699;SDS011;847;48.058;7.810;2023-11-18T11:18:55;8.37;;;7.10;;
1699;SDS011;847;48.058;7.810;2023-11-18T11:21:26;8.40;;;7.17;;
1699;SDS011;847;48.058;7.810;2023-11-18T11:24:03;8.23;;;6.90;;
1699;SDS011;847;48.058;7.810;2023-11-18T11:26:39;5.60;;;5.10;;
1699;SDS011;847;48.058;7.810;2023-11-18T11:29:18;4.87;;;4.47;;
1699;SDS011;847;48.058;7.810;2023-11-18T11:31:54;7.80;;;5.07;;
1699;SDS011;847;48.058;7.810;2023-11-18T11:34:37;7.23;;;5.90;;
1699;SDS011;847;48.058;7.810;2023-11-18T11:37:09;6.33;;;5.13;;
1699;SDS011;847;48.058;7.810;2023-11-18T11:39:41;4.17;;;3.80;;
1699;SDS011;847;48.058;7.810;2023-11-18T11:42:12;5.53;;;4.43;;
1699;SDS011;847;48.058;7.810;2023-11-18T11:44:42;23.83;;;21.00;;
1699;SDS011;847;48.058;7.810;2023-11-18T11:47:10;7.93;;;7.13;;
1699;SDS011;847;48.058;7.810;2023-11-18T11:49:41;6.07;;;5.07;;
1699;SDS011;847;48.058;7.810;2023-11-18T11:52:18;8.53;;;4.63;;
1699;SDS011;847;48.058;7.810;2023-11-18T11:54:52;8.70;;;5.90;;
1699;SDS011;847;48.058;7.810;2023-11-18T11:57:27;7.47;;;6.50;;
1699;SDS011;847;48.058;7.810;2023-11-18T11:59:54;8.80;;;7.03;;
1699;SDS011;847;48.058;7.810;2023-11-18T12:02:22;7.33;;;6.03;;
1699;SDS011;847;48.058;7.810;2023-11-18T12:04:54;8.77;;;6.00;;
1699;SDS011;847;48.058;7.810;2023-11-18T12:07:25;7.47;;;6.27;;
1699;SDS011;847;48.058;7.810;2023-11-18T12:09:56;6.97;;;5.63;;
1699;SDS011;847;48.058;7.810;2023-11-18T12:12:24;6.17;;;5.67;;
1699;SDS011;847;48.058;7.810;2023-11-18T12:14:52;13.10;;;11.80;;
1699;SDS011;847;48.058;7.810;2023-11-18T12:17:21;10.63;;;9.27;;
1699;SDS011;847;48.058;7.810;2023-11-18T12:19:49;8.50;;;7.67;;
1699;SDS011;847;48.058;7.810;2023-11-18T12:22:25;8.70;;;7.63;;
1699;SDS011;847;48.058;7.810;2023-11-18T12:27:58;9.37;;;8.40;;
1699;SDS011;847;48.058;7.810;2023-11-18T12:30:43;14.00;;;12.53;;
1699;SDS011;847;48.058;7.810;2023-11-18T12:33:22;10.97;;;9.83;;
1699;SDS011;847;48.058;7.810;2023-11-18T12:36:03;12.70;;;11.40;;
1699;SDS011;847;48.058;7.810;2023-11-18T12:42:03;11.27;;;10.00;;
1699;SDS011;847;48.058;7.810;2023-11-18T12:44:37;13.10;;;8.70;;
1699;SDS011;847;48.058;7.810;2023-11-18T12:47:09;12.17;;;8.10;;
1699;SDS011;847;48.058;7.810;2023-11-18T12:49:44;9.60;;;8.13;;
1699;SDS011;847;48.058;7.810;2023-11-18T12:52:18;10.10;;;8.70;;
1699;SDS011;847;48.058;7.810;2023-11-18T12:54:48;7.50;;;6.70;;
1699;SDS011;847;48.058;7.810;2023-11-18T12:57:15;10.27;;;7.00;;
1699;SDS011;847;48.058;7.810;2023-11-18T12:59:42;8.50;;;6.30;;
1699;SDS011;847;48.058;7.810;2023-11-18T13:02:10;8.43;;;5.93;;
1699;SDS011;847;48.058;7.810;2023-11-18T13:04:43;8.90;;;7.90;;
1699;SDS011;847;48.058;7.810;2023-11-18T13:07:12;7.37;;;6.33;;
1699;SDS011;847;48.058;7.810;2023-11-18T13:09:39;6.27;;;5.70;;
1699;SDS011;847;48.058;7.810;2023-11-18T13:12:10;7.17;;;5.40;;
1699;SDS011;847;48.058;7.810;2023-11-18T13:14:40;7.80;;;4.87;;
1699;SDS011;847;48.058;7.810;2023-11-18T13:17:08;4.53;;;3.77;;
1699;SDS011;847;48.058;7.810;2023-11-18T13:19:37;7.33;;;3.80;;
1699;SDS011;847;48.058;7.810;2023-11-18T13:22:04;6.40;;;4.80;;
1699;SDS011;847;48.058;7.810;2023-11-18T13:24:33;7.97;;;5.83;;
1699;SDS011;847;48.058;7.810;2023-11-18T13:27:00;5.67;;;3.83;;
1699;SDS011;847;48.058;7.810;2023-11-18T13:29:31;5.10;;;4.03;;
1699;SDS011;847;48.058;7.810;2023-11-18T13:31:57;7.67;;;5.03;;
1699;SDS011;847;48.058;7.810;2023-11-18T13:34:28;8.17;;;4.53;;
1699;SDS011;847;48.058;7.810;2023-11-18T13:36:57;5.53;;;3.80;;
1699;SDS011;847;48.058;7.810;2023-11-18T13:39:25;6.43;;;4.53;;
1699;SDS011;847;48.058;7.810;2023-11-18T13:41:53;8.57;;;3.77;;
1699;SDS011;847;48.058;7.810;2023-11-18T13:44:32;4.93;;;3.60;;
1699;SDS011;847;48.058;7.810;2023-11-18T13:47:00;5.43;;;4.30;;
1699;SDS011;847;48.058;7.810;2023-11-18T13:49:30;9.13;;;4.20;;
1699;SDS011;847;48.058;7.810;2023-11-18T13:51:57;5.47;;;4.97;;
1699;SDS011;847;48.058;7.810;2023-11-18T13:54:24;6.83;;;4.40;;
1699;SDS011;847;48.058;7.810;2023-11-18T13:56:51;7.63;;;4.07;;
1699;SDS011;847;48.058;7.810;2023-11-18T13:59:18;4.80;;;4.20;;
1699;SDS011;847;48.058;7.810;2023-11-18T14:01:46;4.23;;;3.70;;
1699;SDS011;847;48.058;7.810;2023-11-18T14:04:13;4.10;;;3.53;;
1699;SDS011;847;48.058;7.810;2023-11-18T14:06:40;19.43;;;17.40;;
1699;SDS011;847;48.058;7.810;2023-11-18T14:09:07;10.70;;;9.60;;
1699;SDS011;847;48.058;7.810;2023-11-18T14:11:36;10.10;;;9.00;;
1699;SDS011;847;48.058;7.810;2023-11-18T14:14:03;18.13;;;15.27;;
1699;SDS011;847;48.058;7.810;2023-11-18T14:16:30;16.10;;;13.17;;
1699;SDS011;847;48.058;7.810;2023-11-18T14:18:59;30.47;;;25.23;;
1699;SDS011;847;48.058;7.810;2023-11-18T14:21:26;12.40;;;11.17;;
1699;SDS011;847;48.058;7.810;2023-11-18T14:23:52;12.83;;;11.60;;
1699;SDS011;847;48.058;7.810;2023-11-18T14:26:23;19.73;;;15.17;;
1699;SDS011;847;48.058;7.810;2023-11-18T14:28:50;6.07;;;5.50;;
1699;SDS011;847;48.058;7.810;2023-11-18T14:31:17;12.93;;;9.37;;
1699;SDS011;847;48.058;7.810;2023-11-18T14:33:44;8.00;;;7.20;;
1699;SDS011;847;48.058;7.810;2023-11-18T14:36:12;6.80;;;5.40;;
1699;SDS011;847;48.058;7.810;2023-11-18T14:38:39;7.70;;;4.60;;
1699;SDS011;847;48.058;7.810;2023-11-18T14:41:09;6.10;;;5.23;;
1699;SDS011;847;48.058;7.810;2023-11-18T14:43:37;10.07;;;6.30;;
1699;SDS011;847;48.058;7.810;2023-11-18T14:46:05;4.87;;;4.27;;
1699;SDS011;847;48.058;7.810;2023-11-18T14:48:33;5.47;;;5.00;;
1699;SDS011;847;48.058;7.810;2023-11-18T14:51:00;6.63;;;5.50;;
1699;SDS011;847;48.058;7.810;2023-11-18T14:53:28;9.03;;;8.10;;
1699;SDS011;847;48.058;7.810;2023-11-18T14:55:54;9.30;;;8.43;;
1699;SDS011;847;48.058;7.810;2023-11-18T14:58:22;12.50;;;8.90;;
1699;SDS011;847;48.058;7.810;2023-11-18T15:00:50;9.83;;;8.83;;
1699;SDS011;847;48.058;7.810;2023-11-18T15:03:22;12.10;;;9.77;;
1699;SDS011;847;48.058;7.810;2023-11-18T15:05:50;10.87;;;9.70;;
1699;SDS011;847;48.058;7.810;2023-11-18T15:08:16;11.80;;;10.20;;
1699;SDS011;847;48.058;7.810;2023-11-18T15:10:44;13.10;;;10.33;;
1699;SDS011;847;48.058;7.810;2023-11-18T15:13:11;11.37;;;9.70;;
1699;SDS011;847;48.058;7.810;2023-11-18T15:15:40;12.90;;;8.63;;
1699;SDS011;847;48.058;7.810;2023-11-18T15:18:07;12.57;;;9.37;;
1699;SDS011;847;48.058;7.810;2023-11-18T15:20:38;15.03;;;9.97;;
1699;SDS011;847;48.058;7.810;2023-11-18T15:23:07;9.93;;;8.47;;
1699;SDS011;847;48.058;7.810;2023-11-18T15:25:34;10.50;;;8.07;;
1699;SDS011;847;48.058;7.810;2023-11-18T15:28:03;14.33;;;12.83;;
1699;SDS011;847;48.058;7.810;2023-11-18T15:30:34;12.23;;;11.03;;
1699;SDS011;847;48.058;7.810;2023-11-18T15:33:01;10.63;;;8.70;;
1699;SDS011;847;48.058;7.810;2023-11-18T15:35:28;8.90;;;7.47;;
1699;SDS011;847;48.058;7.810;2023-11-18T15:37:55;9.47;;;7.00;;
1699;SDS011;847;48.058;7.810;2023-11-18T15:40:21;10.20;;;7.57;;
1699;SDS011;847;48.058;7.810;2023-11-18T15:42:50;15.87;;;11.23;;